sensor_id;sensor_type;location;lat;lon;timestamp;temperature;humidity
57026;DHT22;43961;52.940;6.834;2022-09-03T00:01:58;15.70;84.80
57026;DHT22;43961;52.940;6.834;2022-09-03T00:04:46;15.70;83.90
57026;DHT22;43961;52.940;6.834;2022-09-03T00:07:34;15.70;83.90
57026;DHT22;43961;52.940;6.834;2022-09-03T00:10:08;15.70;84.40
57026;DHT22;43961;52.940;6.834;2022-09-03T00:12:39;15.70;83.80
57026;DHT22;43961;52.940;6.834;2022-09-03T00:15:12;15.70;84.00
57026;DHT22;43961;52.940;6.834;2022-09-03T00:20:44;15.60;84.50
57026;DHT22;43961;52.940;6.834;2022-09-03T00:23:21;15.60;84.50
57026;DHT22;43961;52.940;6.834;2022-09-03T00:28:41;15.50;85.10
57026;DHT22;43961;52.940;6.834;2022-09-03T00:31:24;15.50;85.50
57026;DHT22;43961;52.940;6.834;2022-09-03T00:33:59;15.50;85.60
57026;DHT22;43961;52.940;6.834;2022-09-03T00:36:41;15.50;85.20
57026;DHT22;43961;52.940;6.834;2022-09-03T00:39:27;15.50;86.10
57026;DHT22;43961;52.940;6.834;2022-09-03T00:57:55;15.30;86.70
57026;DHT22;43961;52.940;6.834;2022-09-03T01:00:23;15.30;86.60
57026;DHT22;43961;52.940;6.834;2022-09-03T01:11:10;15.10;88.40
57026;DHT22;43961;52.940;6.834;2022-09-03T01:13:59;15.10;88.80
57026;DHT22;43961;52.940;6.834;2022-09-03T01:33:12;14.90;90.00
57026;DHT22;43961;52.940;6.834;2022-09-03T01:52:55;14.80;91.80
57026;DHT22;43961;52.940;6.834;2022-09-03T01:55:50;14.70;91.90
57026;DHT22;43961;52.940;6.834;2022-09-03T01:58:32;14.60;92.90
57026;DHT22;43961;52.940;6.834;2022-09-03T02:01:04;14.60;93.10
57026;DHT22;43961;52.940;6.834;2022-09-03T02:03:38;14.60;93.40
57026;DHT22;43961;52.940;6.834;2022-09-03T02:06:07;14.50;94.30
57026;DHT22;43961;52.940;6.834;2022-09-03T02:08:34;14.40;94.30
57026;DHT22;43961;52.940;6.834;2022-09-03T02:11:00;14.40;95.30
57026;DHT22;43961;52.940;6.834;2022-09-03T02:13:46;14.40;95.30
57026;DHT22;43961;52.940;6.834;2022-09-03T02:16:26;14.40;96.30
57026;DHT22;43961;52.940;6.834;2022-09-03T02:19:02;14.30;96.70
57026;DHT22;43961;52.940;6.834;2022-09-03T02:21:34;14.30;97.10
57026;DHT22;43961;52.940;6.834;2022-09-03T02:24:02;14.30;98.00
57026;DHT22;43961;52.940;6.834;2022-09-03T02:26:28;14.30;97.40
57026;DHT22;43961;52.940;6.834;2022-09-03T02:28:54;14.30;98.20
57026;DHT22;43961;52.940;6.834;2022-09-03T02:31:21;14.30;98.90
57026;DHT22;43961;52.940;6.834;2022-09-03T02:33:48;14.30;99.00
57026;DHT22;43961;52.940;6.834;2022-09-03T02:36:19;14.30;99.80
57026;DHT22;43961;52.940;6.834;2022-09-03T02:38:46;14.30;99.90
57026;DHT22;43961;52.940;6.834;2022-09-03T02:41:12;14.30;99.30
57026;DHT22;43961;52.940;6.834;2022-09-03T02:43:45;14.30;99.90
57026;DHT22;43961;52.940;6.834;2022-09-03T02:46:22;14.30;99.90
57026;DHT22;43961;52.940;6.834;2022-09-03T02:48:49;14.30;99.90
57026;DHT22;43961;52.940;6.834;2022-09-03T02:51:15;14.30;99.90
57026;DHT22;43961;52.940;6.834;2022-09-03T02:53:41;14.40;99.90
57026;DHT22;43961;52.940;6.834;2022-09-03T02:56:07;14.40;99.90
57026;DHT22;43961;52.940;6.834;2022-09-03T02:58:33;14.40;99.90
57026;DHT22;43961;52.940;6.834;2022-09-03T03:00:59;14.40;99.90
57026;DHT22;43961;52.940;6.834;2022-09-03T03:03:25;14.50;99.90
57026;DHT22;43961;52.940;6.834;2022-09-03T03:05:53;14.50;99.90
57026;DHT22;43961;52.940;6.834;2022-09-03T03:08:24;14.50;99.90
57026;DHT22;43961;52.940;6.834;2022-09-03T03:10:55;14.50;99.90
57026;DHT22;43961;52.940;6.834;2022-09-03T03:13:25;14.60;99.90
57026;DHT22;43961;52.940;6.834;2022-09-03T03:16:01;14.60;99.70
57026;DHT22;43961;52.940;6.834;2022-09-03T03:18:28;14.70;99.90
57026;DHT22;43961;52.940;6.834;2022-09-03T03:20:54;14.70;99.60
57026;DHT22;43961;52.940;6.834;2022-09-03T03:23:20;14.70;99.80
57026;DHT22;43961;52.940;6.834;2022-09-03T03:25:46;14.80;99.50
57026;DHT22;43961;52.940;6.834;2022-09-03T03:28:12;14.80;99.60
57026;DHT22;43961;52.940;6.834;2022-09-03T03:30:39;14.80;99.10
57026;DHT22;43961;52.940;6.834;2022-09-03T03:33:08;14.80;99.10
57026;DHT22;43961;52.940;6.834;2022-09-03T03:35:34;14.80;99.50
57026;DHT22;43961;52.940;6.834;2022-09-03T03:38:00;14.80;99.10
57026;DHT22;43961;52.940;6.834;2022-09-03T03:40:26;14.80;99.60
57026;DHT22;43961;52.940;6.834;2022-09-03T03:42:52;14.80;99.40
57026;DHT22;43961;52.940;6.834;2022-09-03T03:45:18;14.80;99.40
57026;DHT22;43961;52.940;6.834;2022-09-03T03:47:44;14.70;99.80
57026;DHT22;43961;52.940;6.834;2022-09-03T03:50:10;14.60;99.90
57026;DHT22;43961;52.940;6.834;2022-09-03T03:52:35;14.60;99.90
57026;DHT22;43961;52.940;6.834;2022-09-03T03:55:01;14.60;99.90
57026;DHT22;43961;52.940;6.834;2022-09-03T03:57:29;14.60;99.90
57026;DHT22;43961;52.940;6.834;2022-09-03T03:59:55;14.60;99.90
57026;DHT22;43961;52.940;6.834;2022-09-03T04:02:21;14.50;99.90
57026;DHT22;43961;52.940;6.834;2022-09-03T04:04:46;14.40;99.90
57026;DHT22;43961;52.940;6.834;2022-09-03T04:07:12;14.40;99.90
57026;DHT22;43961;52.940;6.834;2022-09-03T04:09:39;14.30;99.90
57026;DHT22;43961;52.940;6.834;2022-09-03T04:12:05;14.30;99.90
57026;DHT22;43961;52.940;6.834;2022-09-03T04:14:33;14.20;99.90
57026;DHT22;43961;52.940;6.834;2022-09-03T04:17:00;14.20;99.90
57026;DHT22;43961;52.940;6.834;2022-09-03T04:19:27;14.10;99.90
57026;DHT22;43961;52.940;6.834;2022-09-03T04:21:54;14.10;99.90
57026;DHT22;43961;52.940;6.834;2022-09-03T04:24:21;14.00;99.90
57026;DHT22;43961;52.940;6.834;2022-09-03T04:26:47;13.90;99.90
57026;DHT22;43961;52.940;6.834;2022-09-03T04:29:14;13.90;99.90
57026;DHT22;43961;52.940;6.834;2022-09-03T04:31:40;13.80;99.90
57026;DHT22;43961;52.940;6.834;2022-09-03T04:34:26;13.80;99.90
57026;DHT22;43961;52.940;6.834;2022-09-03T04:36:52;13.70;99.90
57026;DHT22;43961;52.940;6.834;2022-09-03T04:39:17;13.60;99.90
57026;DHT22;43961;52.940;6.834;2022-09-03T04:41:43;13.60;99.90
57026;DHT22;43961;52.940;6.834;2022-09-03T04:44:09;13.50;99.90
57026;DHT22;43961;52.940;6.834;2022-09-03T04:46:34;13.50;99.90
57026;DHT22;43961;52.940;6.834;2022-09-03T04:49:00;13.50;99.90
57026;DHT22;43961;52.940;6.834;2022-09-03T04:51:27;13.40;99.90
57026;DHT22;43961;52.940;6.834;2022-09-03T04:53:56;13.30;99.90
57026;DHT22;43961;52.940;6.834;2022-09-03T04:56:24;13.20;99.90
57026;DHT22;43961;52.940;6.834;2022-09-03T04:58:54;13.10;99.90
57026;DHT22;43961;52.940;6.834;2022-09-03T05:01:21;13.10;99.90
57026;DHT22;43961;52.940;6.834;2022-09-03T05:03:47;13.30;99.90
57026;DHT22;43961;52.940;6.834;2022-09-03T05:06:13;13.30;99.90
57026;DHT22;43961;52.940;6.834;2022-09-03T05:08:42;13.40;99.90
57026;DHT22;43961;52.940;6.834;2022-09-03T05:11:10;13.50;99.90
57026;DHT22;43961;52.940;6.834;2022-09-03T05:13:36;13.60;99.90
57026;DHT22;43961;52.940;6.834;2022-09-03T05:16:07;13.60;99.90
57026;DHT22;43961;52.940;6.834;2022-09-03T05:18:34;13.60;99.90
57026;DHT22;43961;52.940;6.834;2022-09-03T05:21:05;13.50;99.90
57026;DHT22;43961;52.940;6.834;2022-09-03T05:23:35;13.40;99.90
57026;DHT22;43961;52.940;6.834;2022-09-03T05:26:05;13.30;99.90
57026;DHT22;43961;52.940;6.834;2022-09-03T05:28:35;13.20;99.90
57026;DHT22;43961;52.940;6.834;2022-09-03T05:33:34;13.10;99.90
57026;DHT22;43961;52.940;6.834;2022-09-03T05:36:11;13.00;99.90
57026;DHT22;43961;52.940;6.834;2022-09-03T05:38:37;13.00;99.90
57026;DHT22;43961;52.940;6.834;2022-09-03T05:41:08;12.90;99.90
57026;DHT22;43961;52.940;6.834;2022-09-03T05:43:35;12.90;99.90
57026;DHT22;43961;52.940;6.834;2022-09-03T05:46:09;12.90;99.90
57026;DHT22;43961;52.940;6.834;2022-09-03T05:48:37;12.90;99.90
57026;DHT22;43961;52.940;6.834;2022-09-03T05:51:05;12.80;99.90
57026;DHT22;43961;52.940;6.834;2022-09-03T05:53:33;12.90;99.90
57026;DHT22;43961;52.940;6.834;2022-09-03T05:56:02;12.90;99.90
57026;DHT22;43961;52.940;6.834;2022-09-03T05:58:32;12.90;99.90
57026;DHT22;43961;52.940;6.834;2022-09-03T06:00:58;12.90;99.90
57026;DHT22;43961;52.940;6.834;2022-09-03T06:03:24;12.90;99.90
57026;DHT22;43961;52.940;6.834;2022-09-03T06:05:51;13.10;99.90
57026;DHT22;43961;52.940;6.834;2022-09-03T06:08:17;13.10;99.90
57026;DHT22;43961;52.940;6.834;2022-09-03T06:10:43;13.20;99.90
57026;DHT22;43961;52.940;6.834;2022-09-03T06:13:08;13.30;99.90
57026;DHT22;43961;52.940;6.834;2022-09-03T06:15:35;13.50;99.90
57026;DHT22;43961;52.940;6.834;2022-09-03T06:18:00;13.50;99.90
57026;DHT22;43961;52.940;6.834;2022-09-03T06:20:26;13.50;99.90
57026;DHT22;43961;52.940;6.834;2022-09-03T06:22:54;13.50;99.90
57026;DHT22;43961;52.940;6.834;2022-09-03T06:25:20;13.70;99.90
57026;DHT22;43961;52.940;6.834;2022-09-03T06:27:47;13.80;99.90
57026;DHT22;43961;52.940;6.834;2022-09-03T06:30:13;13.80;99.90
57026;DHT22;43961;52.940;6.834;2022-09-03T06:32:48;13.80;99.90
57026;DHT22;43961;52.940;6.834;2022-09-03T06:35:18;13.90;99.90
57026;DHT22;43961;52.940;6.834;2022-09-03T06:37:44;14.00;99.90
57026;DHT22;43961;52.940;6.834;2022-09-03T06:40:10;14.20;99.90
57026;DHT22;43961;52.940;6.834;2022-09-03T06:42:55;14.40;99.90
57026;DHT22;43961;52.940;6.834;2022-09-03T06:45:22;14.50;99.90
57026;DHT22;43961;52.940;6.834;2022-09-03T06:47:47;14.70;99.90
57026;DHT22;43961;52.940;6.834;2022-09-03T06:50:13;14.90;99.90
57026;DHT22;43961;52.940;6.834;2022-09-03T06:52:39;15.00;99.90
57026;DHT22;43961;52.940;6.834;2022-09-03T06:55:05;15.10;99.90
57026;DHT22;43961;52.940;6.834;2022-09-03T06:57:31;15.40;99.90
57026;DHT22;43961;52.940;6.834;2022-09-03T06:59:58;15.70;99.90
57026;DHT22;43961;52.940;6.834;2022-09-03T07:02:23;16.00;99.90
57026;DHT22;43961;52.940;6.834;2022-09-03T07:04:49;16.20;99.90
57026;DHT22;43961;52.940;6.834;2022-09-03T07:07:15;16.40;99.90
57026;DHT22;43961;52.940;6.834;2022-09-03T07:09:40;16.60;99.90
57026;DHT22;43961;52.940;6.834;2022-09-03T07:12:06;16.90;99.90
57026;DHT22;43961;52.940;6.834;2022-09-03T07:14:35;17.20;99.90
57026;DHT22;43961;52.940;6.834;2022-09-03T07:17:01;17.40;99.90
57026;DHT22;43961;52.940;6.834;2022-09-03T07:19:26;17.50;99.90
57026;DHT22;43961;52.940;6.834;2022-09-03T07:21:52;17.60;99.90
57026;DHT22;43961;52.940;6.834;2022-09-03T07:24:19;17.80;98.00
57026;DHT22;43961;52.940;6.834;2022-09-03T07:26:46;17.90;96.90
57026;DHT22;43961;52.940;6.834;2022-09-03T07:29:13;18.20;96.70
57026;DHT22;43961;52.940;6.834;2022-09-03T07:31:42;18.30;95.80
57026;DHT22;43961;52.940;6.834;2022-09-03T07:34:09;18.40;92.70
57026;DHT22;43961;52.940;6.834;2022-09-03T07:36:46;18.50;93.50
57026;DHT22;43961;52.940;6.834;2022-09-03T07:39:13;18.60;90.00
57026;DHT22;43961;52.940;6.834;2022-09-03T07:41:40;18.70;90.30
57026;DHT22;43961;52.940;6.834;2022-09-03T07:44:08;18.90;91.10
57026;DHT22;43961;52.940;6.834;2022-09-03T07:46:35;19.10;90.00
57026;DHT22;43961;52.940;6.834;2022-09-03T07:49:03;19.30;89.10
57026;DHT22;43961;52.940;6.834;2022-09-03T07:51:33;19.50;84.50
57026;DHT22;43961;52.940;6.834;2022-09-03T07:54:01;19.50;84.20
57026;DHT22;43961;52.940;6.834;2022-09-03T07:56:28;19.70;83.10
57026;DHT22;43961;52.940;6.834;2022-09-03T07:58:57;19.80;81.70
57026;DHT22;43961;52.940;6.834;2022-09-03T08:01:25;19.80;81.90
57026;DHT22;43961;52.940;6.834;2022-09-03T08:03:53;20.20;81.00
57026;DHT22;43961;52.940;6.834;2022-09-03T08:06:21;20.20;79.40
57026;DHT22;43961;52.940;6.834;2022-09-03T08:08:47;20.40;79.40
57026;DHT22;43961;52.940;6.834;2022-09-03T08:11:18;20.50;77.10
57026;DHT22;43961;52.940;6.834;2022-09-03T08:13:55;20.60;74.20
57026;DHT22;43961;52.940;6.834;2022-09-03T08:16:26;20.90;73.40
57026;DHT22;43961;52.940;6.834;2022-09-03T08:18:52;21.00;73.90
57026;DHT22;43961;52.940;6.834;2022-09-03T08:21:19;21.20;73.40
57026;DHT22;43961;52.940;6.834;2022-09-03T08:23:47;21.10;70.60
57026;DHT22;43961;52.940;6.834;2022-09-03T08:26:14;21.20;70.70
57026;DHT22;43961;52.940;6.834;2022-09-03T08:28:40;21.30;70.40
57026;DHT22;43961;52.940;6.834;2022-09-03T08:33:49;21.60;68.50
57026;DHT22;43961;52.940;6.834;2022-09-03T08:36:17;21.80;69.00
57026;DHT22;43961;52.940;6.834;2022-09-03T08:38:44;22.00;68.50
57026;DHT22;43961;52.940;6.834;2022-09-03T08:46:30;22.30;64.20
57026;DHT22;43961;52.940;6.834;2022-09-03T08:48:57;22.10;65.10
57026;DHT22;43961;52.940;6.834;2022-09-03T08:51:24;22.30;66.00
57026;DHT22;43961;52.940;6.834;2022-09-03T08:53:54;22.40;64.30
57026;DHT22;43961;52.940;6.834;2022-09-03T08:56:29;22.20;63.20
57026;DHT22;43961;52.940;6.834;2022-09-03T08:58:55;22.20;62.50
57026;DHT22;43961;52.940;6.834;2022-09-03T09:01:46;22.10;62.60
57026;DHT22;43961;52.940;6.834;2022-09-03T09:07:10;22.30;62.60
57026;DHT22;43961;52.940;6.834;2022-09-03T09:09:56;22.50;61.70
57026;DHT22;43961;52.940;6.834;2022-09-03T09:12:40;22.60;61.20
57026;DHT22;43961;52.940;6.834;2022-09-03T09:15:29;22.60;60.70
57026;DHT22;43961;52.940;6.834;2022-09-03T09:18:14;22.70;59.80
57026;DHT22;43961;52.940;6.834;2022-09-03T09:20:51;22.80;60.20
57026;DHT22;43961;52.940;6.834;2022-09-03T09:23:28;22.90;60.20
57026;DHT22;43961;52.940;6.834;2022-09-03T09:25:57;23.10;60.30
57026;DHT22;43961;52.940;6.834;2022-09-03T09:28:29;23.10;58.90
57026;DHT22;43961;52.940;6.834;2022-09-03T09:30:57;23.20;58.60
57026;DHT22;43961;52.940;6.834;2022-09-03T09:33:25;23.20;59.20
57026;DHT22;43961;52.940;6.834;2022-09-03T09:35:54;23.30;58.30
57026;DHT22;43961;52.940;6.834;2022-09-03T09:38:31;23.40;58.60
57026;DHT22;43961;52.940;6.834;2022-09-03T09:41:08;23.30;57.30
57026;DHT22;43961;52.940;6.834;2022-09-03T09:43:34;23.40;57.40
57026;DHT22;43961;52.940;6.834;2022-09-03T09:46:07;23.30;57.50
57026;DHT22;43961;52.940;6.834;2022-09-03T09:48:37;23.30;57.10
57026;DHT22;43961;52.940;6.834;2022-09-03T09:51:16;23.30;57.20
57026;DHT22;43961;52.940;6.834;2022-09-03T09:53:42;23.40;56.40
57026;DHT22;43961;52.940;6.834;2022-09-03T09:56:20;23.60;56.60
57026;DHT22;43961;52.940;6.834;2022-09-03T09:58:46;23.70;56.30
57026;DHT22;43961;52.940;6.834;2022-09-03T10:01:23;23.90;56.40
57026;DHT22;43961;52.940;6.834;2022-09-03T10:03:58;24.10;55.50
57026;DHT22;43961;52.940;6.834;2022-09-03T10:06:26;24.20;55.70
57026;DHT22;43961;52.940;6.834;2022-09-03T10:09:14;24.30;54.80
57026;DHT22;43961;52.940;6.834;2022-09-03T10:12:27;24.20;54.60
57026;DHT22;43961;52.940;6.834;2022-09-03T10:17:28;24.20;54.80
57026;DHT22;43961;52.940;6.834;2022-09-03T10:20:43;24.50;53.40
57026;DHT22;43961;52.940;6.834;2022-09-03T10:28:20;24.90;52.10
57026;DHT22;43961;52.940;6.834;2022-09-03T10:31:08;25.10;52.40
57026;DHT22;43961;52.940;6.834;2022-09-03T10:37:01;25.20;51.50
57026;DHT22;43961;52.940;6.834;2022-09-03T10:42:23;24.80;50.50
57026;DHT22;43961;52.940;6.834;2022-09-03T10:45:16;24.80;50.60
57026;DHT22;43961;52.940;6.834;2022-09-03T10:48:02;24.90;50.40
57026;DHT22;43961;52.940;6.834;2022-09-03T10:50:55;25.20;50.60
57026;DHT22;43961;52.940;6.834;2022-09-03T10:53:44;25.20;49.70
57026;DHT22;43961;52.940;6.834;2022-09-03T10:59:22;25.30;48.40
57026;DHT22;43961;52.940;6.834;2022-09-03T11:04:57;25.40;48.10
57026;DHT22;43961;52.940;6.834;2022-09-03T11:07:33;25.50;48.10
57026;DHT22;43961;52.940;6.834;2022-09-03T11:15:37;25.60;47.90
57026;DHT22;43961;52.940;6.834;2022-09-03T11:18:29;25.70;48.30
57026;DHT22;43961;52.940;6.834;2022-09-03T11:21:01;25.80;47.10
57026;DHT22;43961;52.940;6.834;2022-09-03T11:23:32;26.00;46.90
57026;DHT22;43961;52.940;6.834;2022-09-03T11:26:07;25.80;46.60
57026;DHT22;43961;52.940;6.834;2022-09-03T11:34:32;25.90;45.50
57026;DHT22;43961;52.940;6.834;2022-09-03T11:37:25;25.90;46.30
57026;DHT22;43961;52.940;6.834;2022-09-03T11:42:34;25.90;45.70
57026;DHT22;43961;52.940;6.834;2022-09-03T11:47:57;26.20;44.70
57026;DHT22;43961;52.940;6.834;2022-09-03T11:50:26;26.20;45.90
57026;DHT22;43961;52.940;6.834;2022-09-03T11:58:38;26.40;44.60
57026;DHT22;43961;52.940;6.834;2022-09-03T12:01:11;26.30;44.80
57026;DHT22;43961;52.940;6.834;2022-09-03T12:03:46;26.30;44.50
57026;DHT22;43961;52.940;6.834;2022-09-03T12:06:18;26.00;44.50
57026;DHT22;43961;52.940;6.834;2022-09-03T12:14:26;26.30;44.70
57026;DHT22;43961;52.940;6.834;2022-09-03T12:22:17;26.00;44.70
57026;DHT22;43961;52.940;6.834;2022-09-03T12:24:43;26.20;44.90
57026;DHT22;43961;52.940;6.834;2022-09-03T12:27:18;26.10;44.10
57026;DHT22;43961;52.940;6.834;2022-09-03T12:29:52;26.10;44.00
57026;DHT22;43961;52.940;6.834;2022-09-03T12:32:22;25.70;43.80
57026;DHT22;43961;52.940;6.834;2022-09-03T12:34:48;25.60;44.40
57026;DHT22;43961;52.940;6.834;2022-09-03T12:37:25;25.50;44.70
57026;DHT22;43961;52.940;6.834;2022-09-03T12:39:52;25.60;44.80
57026;DHT22;43961;52.940;6.834;2022-09-03T12:42:29;25.60;44.60
57026;DHT22;43961;52.940;6.834;2022-09-03T12:45:05;25.70;44.70
57026;DHT22;43961;52.940;6.834;2022-09-03T12:47:38;25.80;44.80
57026;DHT22;43961;52.940;6.834;2022-09-03T12:50:21;25.80;43.90
57026;DHT22;43961;52.940;6.834;2022-09-03T13:00:23;25.70;44.60
57026;DHT22;43961;52.940;6.834;2022-09-03T13:05:32;25.70;44.80
57026;DHT22;43961;52.940;6.834;2022-09-03T13:07:59;25.60;44.40
57026;DHT22;43961;52.940;6.834;2022-09-03T13:10:35;25.80;44.50
57026;DHT22;43961;52.940;6.834;2022-09-03T13:13:19;25.70;43.40
57026;DHT22;43961;52.940;6.834;2022-09-03T13:16:29;25.80;45.00
57026;DHT22;43961;52.940;6.834;2022-09-03T13:19:24;25.70;44.20
57026;DHT22;43961;52.940;6.834;2022-09-03T13:30:08;25.90;43.90
57026;DHT22;43961;52.940;6.834;2022-09-03T13:33:00;25.80;45.00
57026;DHT22;43961;52.940;6.834;2022-09-03T13:35:36;25.90;44.20
57026;DHT22;43961;52.940;6.834;2022-09-03T13:41:01;26.00;44.80
57026;DHT22;43961;52.940;6.834;2022-09-03T13:46:06;26.10;44.50
57026;DHT22;43961;52.940;6.834;2022-09-03T13:48:38;26.20;44.40
57026;DHT22;43961;52.940;6.834;2022-09-03T13:51:43;26.20;44.70
57026;DHT22;43961;52.940;6.834;2022-09-03T13:54:22;26.00;44.20
57026;DHT22;43961;52.940;6.834;2022-09-03T13:57:06;26.10;44.40
57026;DHT22;43961;52.940;6.834;2022-09-03T14:08:03;26.30;44.90
57026;DHT22;43961;52.940;6.834;2022-09-03T14:13:18;26.30;45.20
57026;DHT22;43961;52.940;6.834;2022-09-03T14:19:04;25.90;46.10
57026;DHT22;43961;52.940;6.834;2022-09-03T14:21:40;26.00;45.40
57026;DHT22;43961;52.940;6.834;2022-09-03T14:24:16;26.00;45.60
57026;DHT22;43961;52.940;6.834;2022-09-03T14:27:10;25.80;45.40
57026;DHT22;43961;52.940;6.834;2022-09-03T14:29:36;25.70;45.50
57026;DHT22;43961;52.940;6.834;2022-09-03T14:40:24;25.90;46.20
57026;DHT22;43961;52.940;6.834;2022-09-03T14:46:02;25.90;45.70
57026;DHT22;43961;52.940;6.834;2022-09-03T15:05:14;25.80;45.80
57026;DHT22;43961;52.940;6.834;2022-09-03T15:07:51;25.70;45.70
57026;DHT22;43961;52.940;6.834;2022-09-03T15:10:31;25.70;46.60
57026;DHT22;43961;52.940;6.834;2022-09-03T15:13:15;25.80;47.20
57026;DHT22;43961;52.940;6.834;2022-09-03T15:18:26;25.70;46.90
57026;DHT22;43961;52.940;6.834;2022-09-03T15:21:03;25.70;47.10
57026;DHT22;43961;52.940;6.834;2022-09-03T15:24:01;25.70;47.20
57026;DHT22;43961;52.940;6.834;2022-09-03T15:26:59;25.70;46.90
57026;DHT22;43961;52.940;6.834;2022-09-03T15:35:07;25.60;47.50
57026;DHT22;43961;52.940;6.834;2022-09-03T15:37:46;25.70;48.30
57026;DHT22;43961;52.940;6.834;2022-09-03T15:40:27;25.60;47.90
57026;DHT22;43961;52.940;6.834;2022-09-03T15:43:09;25.50;47.40
57026;DHT22;43961;52.940;6.834;2022-09-03T15:45:40;25.50;47.80
57026;DHT22;43961;52.940;6.834;2022-09-03T15:53:52;25.30;48.10
57026;DHT22;43961;52.940;6.834;2022-09-03T15:59:02;25.20;47.70
57026;DHT22;43961;52.940;6.834;2022-09-03T16:01:35;25.10;48.80
57026;DHT22;43961;52.940;6.834;2022-09-03T16:10:07;25.00;48.80
57026;DHT22;43961;52.940;6.834;2022-09-03T16:12:52;24.90;49.60
57026;DHT22;43961;52.940;6.834;2022-09-03T16:18:01;24.60;49.50
57026;DHT22;43961;52.940;6.834;2022-09-03T16:23:42;24.20;50.80
57026;DHT22;43961;52.940;6.834;2022-09-03T16:26:21;24.20;51.20
57026;DHT22;43961;52.940;6.834;2022-09-03T16:28:59;24.30;50.90
57026;DHT22;43961;52.940;6.834;2022-09-03T16:31:41;24.30;50.70
57026;DHT22;43961;52.940;6.834;2022-09-03T16:42:43;24.40;50.90
57026;DHT22;43961;52.940;6.834;2022-09-03T16:51:38;24.20;51.60
57026;DHT22;43961;52.940;6.834;2022-09-03T16:59:40;23.90;52.60
57026;DHT22;43961;52.940;6.834;2022-09-03T17:02:40;23.90;52.80
57026;DHT22;43961;52.940;6.834;2022-09-03T17:11:50;23.50;55.00
57026;DHT22;43961;52.940;6.834;2022-09-03T17:14:37;23.30;55.50
57026;DHT22;43961;52.940;6.834;2022-09-03T17:22:50;23.00;56.00
57026;DHT22;43961;52.940;6.834;2022-09-03T17:25:38;22.90;56.20
57026;DHT22;43961;52.940;6.834;2022-09-03T17:28:30;22.80;56.80
57026;DHT22;43961;52.940;6.834;2022-09-03T17:42:55;22.50;58.10
57026;DHT22;43961;52.940;6.834;2022-09-03T17:45:35;22.30;58.90
57026;DHT22;43961;52.940;6.834;2022-09-03T17:48:12;22.20;58.90
57026;DHT22;43961;52.940;6.834;2022-09-03T17:50:55;22.10;59.40
57026;DHT22;43961;52.940;6.834;2022-09-03T17:53:37;22.00;59.60
57026;DHT22;43961;52.940;6.834;2022-09-03T17:56:09;21.90;60.40
57026;DHT22;43961;52.940;6.834;2022-09-03T17:59:00;21.70;60.20
57026;DHT22;43961;52.940;6.834;2022-09-03T18:01:32;21.70;60.60
57026;DHT22;43961;52.940;6.834;2022-09-03T18:04:27;21.50;61.00
57026;DHT22;43961;52.940;6.834;2022-09-03T18:07:08;21.50;61.90
57026;DHT22;43961;52.940;6.834;2022-09-03T18:09:50;21.40;61.70
57026;DHT22;43961;52.940;6.834;2022-09-03T18:15:20;21.20;62.60
57026;DHT22;43961;52.940;6.834;2022-09-03T18:18:02;21.00;63.40
57026;DHT22;43961;52.940;6.834;2022-09-03T18:20:41;20.90;63.70
57026;DHT22;43961;52.940;6.834;2022-09-03T18:23:38;20.80;64.00
57026;DHT22;43961;52.940;6.834;2022-09-03T18:26:30;20.80;64.00
57026;DHT22;43961;52.940;6.834;2022-09-03T18:29:40;20.60;64.00
57026;DHT22;43961;52.940;6.834;2022-09-03T18:32:28;20.50;65.20
57026;DHT22;43961;52.940;6.834;2022-09-03T18:35:14;20.40;64.70
57026;DHT22;43961;52.940;6.834;2022-09-03T18:37:58;20.40;64.70
57026;DHT22;43961;52.940;6.834;2022-09-03T18:44:51;20.30;65.00
57026;DHT22;43961;52.940;6.834;2022-09-03T18:47:47;20.30;65.80
57026;DHT22;43961;52.940;6.834;2022-09-03T18:50:51;20.10;66.30
57026;DHT22;43961;52.940;6.834;2022-09-03T18:56:43;19.90;66.70
57026;DHT22;43961;52.940;6.834;2022-09-03T19:08:22;19.60;67.70
57026;DHT22;43961;52.940;6.834;2022-09-03T19:11:28;19.50;68.20
57026;DHT22;43961;52.940;6.834;2022-09-03T19:20:28;19.30;70.00
57026;DHT22;43961;52.940;6.834;2022-09-03T19:23:13;19.20;69.20
57026;DHT22;43961;52.940;6.834;2022-09-03T19:26:05;19.10;69.30
57026;DHT22;43961;52.940;6.834;2022-09-03T19:28:57;19.10;69.80
57026;DHT22;43961;52.940;6.834;2022-09-03T19:31:49;19.10;69.20
57026;DHT22;43961;52.940;6.834;2022-09-03T19:37:59;19.00;70.20
57026;DHT22;43961;52.940;6.834;2022-09-03T19:46:59;18.90;70.50
57026;DHT22;43961;52.940;6.834;2022-09-03T19:52:47;18.90;70.20
57026;DHT22;43961;52.940;6.834;2022-09-03T19:55:39;18.80;70.30
57026;DHT22;43961;52.940;6.834;2022-09-03T19:58:27;18.80;70.20
57026;DHT22;43961;52.940;6.834;2022-09-03T20:01:12;18.80;69.90
57026;DHT22;43961;52.940;6.834;2022-09-03T20:03:59;18.80;69.80
57026;DHT22;43961;52.940;6.834;2022-09-03T20:06:45;18.80;70.20
57026;DHT22;43961;52.940;6.834;2022-09-03T20:09:34;18.70;70.30
57026;DHT22;43961;52.940;6.834;2022-09-03T20:12:21;18.70;70.50
57026;DHT22;43961;52.940;6.834;2022-09-03T20:14:48;18.60;70.50
57026;DHT22;43961;52.940;6.834;2022-09-03T20:20:29;18.50;70.90
57026;DHT22;43961;52.940;6.834;2022-09-03T20:23:10;18.50;71.70
57026;DHT22;43961;52.940;6.834;2022-09-03T20:25:53;18.50;71.50
57026;DHT22;43961;52.940;6.834;2022-09-03T20:29:07;18.40;71.40
57026;DHT22;43961;52.940;6.834;2022-09-03T20:37:44;18.40;72.50
57026;DHT22;43961;52.940;6.834;2022-09-03T20:43:20;18.30;72.10
57026;DHT22;43961;52.940;6.834;2022-09-03T20:49:16;18.30;72.60
57026;DHT22;43961;52.940;6.834;2022-09-03T20:51:56;18.20;72.80
57026;DHT22;43961;52.940;6.834;2022-09-03T20:54:29;18.20;72.70
57026;DHT22;43961;52.940;6.834;2022-09-03T20:57:11;18.10;72.90
57026;DHT22;43961;52.940;6.834;2022-09-03T21:02:19;18.00;73.30
57026;DHT22;43961;52.940;6.834;2022-09-03T21:08:33;17.80;73.80
57026;DHT22;43961;52.940;6.834;2022-09-03T21:13:09;17.80;75.40
57026;DHT22;43961;52.940;6.834;2022-09-03T21:15:56;17.70;74.60
57026;DHT22;43961;52.940;6.834;2022-09-03T21:18:28;17.70;75.50
57026;DHT22;43961;52.940;6.834;2022-09-03T21:23:46;17.60;75.70
57026;DHT22;43961;52.940;6.834;2022-09-03T21:26:24;17.60;76.10
57026;DHT22;43961;52.940;6.834;2022-09-03T21:29:05;17.60;76.10
57026;DHT22;43961;52.940;6.834;2022-09-03T21:32:09;17.50;76.20
57026;DHT22;43961;52.940;6.834;2022-09-03T21:34:41;17.50;77.10
57026;DHT22;43961;52.940;6.834;2022-09-03T21:37:11;17.40;77.00
57026;DHT22;43961;52.940;6.834;2022-09-03T21:39:50;17.30;77.20
57026;DHT22;43961;52.940;6.834;2022-09-03T21:48:00;17.20;78.10
57026;DHT22;43961;52.940;6.834;2022-09-03T21:50:44;17.20;78.00
57026;DHT22;43961;52.940;6.834;2022-09-03T21:53:17;17.10;78.90
57026;DHT22;43961;52.940;6.834;2022-09-03T22:04:04;16.80;81.50